Cygnus — 9HA2105 — position and weather

sailwx.info

Track history (hours):
 
Tides and Currents Weather Stations Pressure Air Temp Water Temp Dewpoint Dewpoint Depression Visibility Wind Speed Wind Dir Waves Ship Positions

Cygnus

Last reported at 2015-Jul-05 14:13 UTC. Time now 2015-Jul-07 02:35 UTC.
Position N 39°26' W 009°51'.

Length 177 m; draft 8.6 m.

Type: Cargo ship. MMSI: 249963000.

Date/timePositionNaut miles runAvg speedWind from/ knotsBaromVisibWave heightAir tempDewpointWater temp
2015-Jul-05 14:13N 39°26' W 009°51'710.4
2015-Jul-05 13:33N 39°19' W 009°51'1010.4
2015-Jul-05 12:33N 39°09' W 009°51'1110.6
2015-Jul-05 11:33N 38°59' W 009°51'1010.4
2015-Jul-05 10:33N 38°48' W 009°52'1010.3
2015-Jul-05 09:34N 38°38' W 009°50'1010.3
2015-Jul-05 08:33N 38°28' W 009°47'1010.2
2015-Jul-05 07:33N 38°18' W 009°44'1010.1
2015-Jul-05 06:33N 38°08' W 009°41'10 9.7
2015-Jul-05 05:33N 37°59' W 009°38'10 9.7
2015-Jul-05 04:33N 37°49' W 009°36'1010.1
2015-Jul-05 03:31N 37°39' W 009°32'1010.4
2015-Jul-05 02:32N 37°29' W 009°30'1010.2
2015-Jul-05 01:33N 37°19' W 009°27'2210.2
2015-Jul-04 23:26N 36°58' W 009°21'9 9.9
2015-Jul-04 22:33N 36°50' W 009°16'1310.3
2015-Jul-04 21:15N 36°43' W 009°03'710.6
2015-Jul-04 20:33N 36°40' W 008°54'1110.4
2015-Jul-04 19:32N 36°37' W 008°41'1412.9
2015-Jul-04 18:29N 36°33' W 008°25'7 7.8
2015-Jul-04 17:33N 36°31' W 008°16'1110.6
2015-Jul-04 16:33N 36°27' W 008°04'1110.8
2015-Jul-04 15:34N 36°24' W 007°51'1110.7
2015-Jul-04 14:34N 36°21' W 007°38'10710.7
2015-Jul-04 04:31N 35°60' W 005°28'1010.1
2015-Jul-04 03:34N 36°02' W 005°17'13711.0
2015-Jul-03 15:04N 36°24' W 002°29'2112.2
2015-Jul-03 13:19N 36°27' W 002°03'7011.9
2015-Jul-03 07:23N 36°36' W 000°36'1212.1
2015-Jul-03 06:24N 36°38' W 000°21'2511.8
2015-Jul-03 04:17N 36°41' E 000°10'1112.1
2015-Jul-03 03:22N 36°42' E 000°23'1012.1
2015-Jul-03 02:33N 36°44' E 000°36'1211.9
2015-Jul-03 01:33N 36°46' E 000°50'4611.6
2015-Jul-02 21:33N 36°52' E 001°48'1311.4
2015-Jul-02 20:24N 36°53' E 002°04'1111.7
2015-Jul-02 19:30N 36°55' E 002°17'1411.7
2015-Jul-02 18:21N 36°56' E 002°34'2111.6
2015-Jul-02 16:33N 36°59' E 002°60'1211.9
2015-Jul-02 15:33N 37°01' E 003°14'1212.1
2015-Jul-02 14:33N 37°02' E 003°30'1212.3
2015-Jul-02 13:33N 37°04' E 003°45'1312.4
2015-Jul-02 12:29N 37°06' E 004°01'1112.4
2015-Jul-02 11:34N 37°07' E 004°15'3611.8
2015-Jul-02 08:29N 37°12' E 005°01'1111.9
2015-Jul-02 07:34N 37°14' E 005°14'1212.1
2015-Jul-02 06:33N 37°15' E 005°30'2612.5
2015-Jul-02 04:27N 37°19' E 006°03'5512.6
2015-Jul-02 00:06N 37°27' E 007°11'711.8
2015-Jul-01 23:30N 37°28' E 007°19'3611.8
2015-Jul-01 20:27N 37°31' E 008°04'1112.0
2015-Jul-01 19:30N 37°33' E 008°18'1211.9
2015-Jul-01 18:32N 37°35' E 008°33'1311.7
2015-Jul-01 17:22N 37°37' E 008°50'1011.8
2015-Jul-01 16:32N 37°37' E 009°02'1211.8
2015-Jul-01 15:33N 37°37' E 009°17'1211.8
2015-Jul-01 14:34N 37°38' E 009°32'1211.7
2015-Jul-01 13:34N 37°38' E 009°46'1211.7
2015-Jul-01 12:33N 37°38' E 010°01'1211.7
2015-Jul-01 11:33N 37°38' E 010°16'1211.7
2015-Jul-01 10:34N 37°35' E 010°30'1111.3
2015-Jul-01 09:33N 37°32' E 010°44'1111.2
2015-Jul-01 08:34N 37°30' E 010°58'1111.3
2015-Jul-01 07:33N 37°27' E 011°12'1511.6
2015-Jul-01 06:16N 37°21' E 011°29'2011.8
2015-Jul-01 04:32N 37°12' E 011°52'1211.8
2015-Jul-01 03:33N 37°08' E 012°05'1211.5
2015-Jul-01 02:32N 37°04' E 012°19'1111.6
2015-Jul-01 01:33N 37°01' E 012°33'1211.4
2015-Jul-01 00:32N 36°58' E 012°47'1111.3
2015-Jun-30 23:33N 36°54' E 013°00'1111.1
2015-Jun-30 22:33N 36°50' E 013°13'1111.1
2015-Jun-30 21:33N 36°47' E 013°27'1111.1
2015-Jun-30 20:34N 36°44' E 013°40'1111.0
2015-Jun-30 19:34N 36°40' E 013°53'1111.1
2015-Jun-30 18:33N 36°37' E 014°06'1211.8
2015-Jun-30 17:33N 36°33' E 014°20'1111.3
2015-Jun-30 16:33N 36°30' E 014°33'1111.1
2015-Jun-30 15:34N 36°29' E 014°47'1211.6
2015-Jun-30 14:33N 36°29' E 015°02'1211.6
2015-Jun-30 13:33N 36°28' E 015°16'1111.3
2015-Jun-30 12:33N 36°28' E 015°30'  
Track history (hours):
 
Tides and Currents Weather Stations Pressure Air Temp Water Temp Dewpoint Dewpoint Depression Visibility Wind Speed Wind Dir Waves Ship Positions

Cygnus

Last reported at 2015-Jul-05 14:13 UTC. Time now 2015-Jul-07 02:35 UTC.
Position N 39°26' W 009°51'.

Length 177 m; draft 8.6 m.

Type: Cargo ship. MMSI: 249963000.

Date/timePositionNaut miles runAvg speedWind from/ knotsBaromVisibWave heightAir tempDewpointWater temp
2015-Jul-05 14:13N 39°26' W 009°51'710.4
2015-Jul-05 13:33N 39°19' W 009°51'1010.4
2015-Jul-05 12:33N 39°09' W 009°51'1110.6
2015-Jul-05 11:33N 38°59' W 009°51'1010.4
2015-Jul-05 10:33N 38°48' W 009°52'1010.3
2015-Jul-05 09:34N 38°38' W 009°50'1010.3
2015-Jul-05 08:33N 38°28' W 009°47'1010.2
2015-Jul-05 07:33N 38°18' W 009°44'1010.1
2015-Jul-05 06:33N 38°08' W 009°41'10 9.7
2015-Jul-05 05:33N 37°59' W 009°38'10 9.7
2015-Jul-05 04:33N 37°49' W 009°36'1010.1
2015-Jul-05 03:31N 37°39' W 009°32'1010.4
2015-Jul-05 02:32N 37°29' W 009°30'1010.2
2015-Jul-05 01:33N 37°19' W 009°27'2210.2
2015-Jul-04 23:26N 36°58' W 009°21'9 9.9
2015-Jul-04 22:33N 36°50' W 009°16'1310.3
2015-Jul-04 21:15N 36°43' W 009°03'710.6
2015-Jul-04 20:33N 36°40' W 008°54'1110.4
2015-Jul-04 19:32N 36°37' W 008°41'1412.9
2015-Jul-04 18:29N 36°33' W 008°25'7 7.8
2015-Jul-04 17:33N 36°31' W 008°16'1110.6
2015-Jul-04 16:33N 36°27' W 008°04'1110.8
2015-Jul-04 15:34N 36°24' W 007°51'1110.7
2015-Jul-04 14:34N 36°21' W 007°38'10710.7
2015-Jul-04 04:31N 35°60' W 005°28'1010.1
2015-Jul-04 03:34N 36°02' W 005°17'13711.0
2015-Jul-03 15:04N 36°24' W 002°29'2112.2
2015-Jul-03 13:19N 36°27' W 002°03'7011.9
2015-Jul-03 07:23N 36°36' W 000°36'1212.1
2015-Jul-03 06:24N 36°38' W 000°21'2511.8
2015-Jul-03 04:17N 36°41' E 000°10'1112.1
2015-Jul-03 03:22N 36°42' E 000°23'1012.1
2015-Jul-03 02:33N 36°44' E 000°36'1211.9
2015-Jul-03 01:33N 36°46' E 000°50'4611.6
2015-Jul-02 21:33N 36°52' E 001°48'1311.4
2015-Jul-02 20:24N 36°53' E 002°04'1111.7
2015-Jul-02 19:30N 36°55' E 002°17'1411.7
2015-Jul-02 18:21N 36°56' E 002°34'2111.6
2015-Jul-02 16:33N 36°59' E 002°60'1211.9
2015-Jul-02 15:33N 37°01' E 003°14'1212.1
2015-Jul-02 14:33N 37°02' E 003°30'1212.3
2015-Jul-02 13:33N 37°04' E 003°45'1312.4
2015-Jul-02 12:29N 37°06' E 004°01'1112.4
2015-Jul-02 11:34N 37°07' E 004°15'3611.8
2015-Jul-02 08:29N 37°12' E 005°01'1111.9
2015-Jul-02 07:34N 37°14' E 005°14'1212.1
2015-Jul-02 06:33N 37°15' E 005°30'2612.5
2015-Jul-02 04:27N 37°19' E 006°03'5512.6
2015-Jul-02 00:06N 37°27' E 007°11'711.8
2015-Jul-01 23:30N 37°28' E 007°19'3611.8
2015-Jul-01 20:27N 37°31' E 008°04'1112.0
2015-Jul-01 19:30N 37°33' E 008°18'1211.9
2015-Jul-01 18:32N 37°35' E 008°33'1311.7
2015-Jul-01 17:22N 37°37' E 008°50'1011.8
2015-Jul-01 16:32N 37°37' E 009°02'1211.8
2015-Jul-01 15:33N 37°37' E 009°17'1211.8
2015-Jul-01 14:34N 37°38' E 009°32'1211.7
2015-Jul-01 13:34N 37°38' E 009°46'1211.7
2015-Jul-01 12:33N 37°38' E 010°01'1211.7
2015-Jul-01 11:33N 37°38' E 010°16'1211.7
2015-Jul-01 10:34N 37°35' E 010°30'1111.3
2015-Jul-01 09:33N 37°32' E 010°44'1111.2
2015-Jul-01 08:34N 37°30' E 010°58'1111.3
2015-Jul-01 07:33N 37°27' E 011°12'1511.6
2015-Jul-01 06:16N 37°21' E 011°29'2011.8
2015-Jul-01 04:32N 37°12' E 011°52'1211.8
2015-Jul-01 03:33N 37°08' E 012°05'1211.5
2015-Jul-01 02:32N 37°04' E 012°19'1111.6
2015-Jul-01 01:33N 37°01' E 012°33'1211.4
2015-Jul-01 00:32N 36°58' E 012°47'1111.3
2015-Jun-30 23:33N 36°54' E 013°00'1111.1
2015-Jun-30 22:33N 36°50' E 013°13'1111.1
2015-Jun-30 21:33N 36°47' E 013°27'1111.1
2015-Jun-30 20:34N 36°44' E 013°40'1111.0
2015-Jun-30 19:34N 36°40' E 013°53'1111.1
2015-Jun-30 18:33N 36°37' E 014°06'1211.8
2015-Jun-30 17:33N 36°33' E 014°20'1111.3
2015-Jun-30 16:33N 36°30' E 014°33'1111.1
2015-Jun-30 15:34N 36°29' E 014°47'1211.6
2015-Jun-30 14:33N 36°29' E 015°02'1211.6
2015-Jun-30 13:33N 36°28' E 015°16'1111.3
2015-Jun-30 12:33N 36°28' E 015°30'  

Dump ship's entire track history